sensor_id;sensor_type;location;lat;lon;timestamp;P1;durP1;ratioP1;P2;durP2;ratioP2
17369;SDS011;8802;52.402;4.920;2022-11-11T00:01:16;8.02;;;4.97;;
17369;SDS011;8802;52.402;4.920;2022-11-11T00:03:43;9.52;;;4.72;;
17369;SDS011;8802;52.402;4.920;2022-11-11T00:06:11;8.27;;;4.90;;
17369;SDS011;8802;52.402;4.920;2022-11-11T00:08:39;10.57;;;4.82;;
17369;SDS011;8802;52.402;4.920;2022-11-11T00:11:08;9.57;;;4.72;;
17369;SDS011;8802;52.402;4.920;2022-11-11T00:13:36;9.95;;;4.38;;
17369;SDS011;8802;52.402;4.920;2022-11-11T00:16:04;7.35;;;4.38;;
17369;SDS011;8802;52.402;4.920;2022-11-11T00:18:32;7.30;;;4.50;;
17369;SDS011;8802;52.402;4.920;2022-11-11T00:21:16;9.23;;;4.55;;
17369;SDS011;8802;52.402;4.920;2022-11-11T00:24:00;6.28;;;4.20;;
17369;SDS011;8802;52.402;4.920;2022-11-11T00:26:46;8.32;;;5.18;;
17369;SDS011;8802;52.402;4.920;2022-11-11T00:29:13;6.07;;;4.80;;
17369;SDS011;8802;52.402;4.920;2022-11-11T00:31:39;6.75;;;4.47;;
17369;SDS011;8802;52.402;4.920;2022-11-11T00:34:20;9.23;;;5.15;;
17369;SDS011;8802;52.402;4.920;2022-11-11T00:36:47;7.90;;;5.40;;
17369;SDS011;8802;52.402;4.920;2022-11-11T00:39:13;8.25;;;5.25;;
17369;SDS011;8802;52.402;4.920;2022-11-11T00:41:39;8.43;;;5.88;;
17369;SDS011;8802;52.402;4.920;2022-11-11T00:44:08;10.50;;;5.38;;
17369;SDS011;8802;52.402;4.920;2022-11-11T00:46:34;9.93;;;5.88;;
17369;SDS011;8802;52.402;4.920;2022-11-11T00:49:19;10.25;;;6.13;;
17369;SDS011;8802;52.402;4.920;2022-11-11T00:52:03;11.95;;;7.75;;
17369;SDS011;8802;52.402;4.920;2022-11-11T00:54:30;8.43;;;6.97;;
17369;SDS011;8802;52.402;4.920;2022-11-11T00:56:57;13.73;;;7.78;;
17369;SDS011;8802;52.402;4.920;2022-11-11T00:59:25;11.60;;;8.18;;
17369;SDS011;8802;52.402;4.920;2022-11-11T01:01:52;9.93;;;8.43;;
17369;SDS011;8802;52.402;4.920;2022-11-11T01:04:19;9.65;;;7.88;;
17369;SDS011;8802;52.402;4.920;2022-11-11T01:06:45;14.77;;;9.52;;
17369;SDS011;8802;52.402;4.920;2022-11-11T01:09:13;12.48;;;9.35;;
17369;SDS011;8802;52.402;4.920;2022-11-11T01:11:39;10.77;;;9.60;;
17369;SDS011;8802;52.402;4.920;2022-11-11T01:14:06;12.55;;;10.27;;
17369;SDS011;8802;52.402;4.920;2022-11-11T01:16:34;11.77;;;10.57;;
17369;SDS011;8802;52.402;4.920;2022-11-11T01:19:02;12.48;;;10.48;;
17369;SDS011;8802;52.402;4.920;2022-11-11T01:21:29;16.23;;;10.20;;
17369;SDS011;8802;52.402;4.920;2022-11-11T01:23:56;11.45;;;10.30;;
17369;SDS011;8802;52.402;4.920;2022-11-11T01:26:23;12.20;;;9.73;;
17369;SDS011;8802;52.402;4.920;2022-11-11T01:28:51;14.80;;;11.60;;
17369;SDS011;8802;52.402;4.920;2022-11-11T01:31:20;13.77;;;10.70;;
17369;SDS011;8802;52.402;4.920;2022-11-11T01:33:50;12.23;;;10.82;;
17369;SDS011;8802;52.402;4.920;2022-11-11T01:36:18;14.27;;;11.55;;
17369;SDS011;8802;52.402;4.920;2022-11-11T01:38:47;11.95;;;10.60;;
17369;SDS011;8802;52.402;4.920;2022-11-11T01:41:15;13.00;;;11.52;;
17369;SDS011;8802;52.402;4.920;2022-11-11T01:43:58;13.52;;;10.90;;
17369;SDS011;8802;52.402;4.920;2022-11-11T01:46:32;17.08;;;11.80;;
17369;SDS011;8802;52.402;4.920;2022-11-11T01:49:04;13.65;;;10.90;;
17369;SDS011;8802;52.402;4.920;2022-11-11T01:51:47;12.38;;;11.18;;
17369;SDS011;8802;52.402;4.920;2022-11-11T01:54:21;13.77;;;12.05;;
17369;SDS011;8802;52.402;4.920;2022-11-11T01:56:55;13.35;;;11.75;;
17369;SDS011;8802;52.402;4.920;2022-11-11T01:59:26;15.80;;;13.77;;
17369;SDS011;8802;52.402;4.920;2022-11-11T02:01:56;14.18;;;12.75;;
17369;SDS011;8802;52.402;4.920;2022-11-11T02:04:25;15.13;;;12.52;;
17369;SDS011;8802;52.402;4.920;2022-11-11T02:07:09;14.70;;;12.40;;
17369;SDS011;8802;52.402;4.920;2022-11-11T02:09:38;16.00;;;12.70;;
17369;SDS011;8802;52.402;4.920;2022-11-11T02:12:08;14.93;;;13.30;;
17369;SDS011;8802;52.402;4.920;2022-11-11T02:14:53;14.43;;;12.93;;
17369;SDS011;8802;52.402;4.920;2022-11-11T02:17:24;15.73;;;14.02;;
17369;SDS011;8802;52.402;4.920;2022-11-11T02:19:54;16.85;;;15.10;;
17369;SDS011;8802;52.402;4.920;2022-11-11T02:22:25;14.80;;;13.30;;
17369;SDS011;8802;52.402;4.920;2022-11-11T02:24:59;16.42;;;14.48;;
17369;SDS011;8802;52.402;4.920;2022-11-11T02:27:30;16.63;;;14.57;;
17369;SDS011;8802;52.402;4.920;2022-11-11T02:29:59;17.55;;;15.60;;
17369;SDS011;8802;52.402;4.920;2022-11-11T02:32:30;16.48;;;14.93;;
17369;SDS011;8802;52.402;4.920;2022-11-11T02:34:57;17.98;;;15.63;;
17369;SDS011;8802;52.402;4.920;2022-11-11T02:37:25;15.90;;;13.98;;
17369;SDS011;8802;52.402;4.920;2022-11-11T02:39:53;17.63;;;15.20;;
17369;SDS011;8802;52.402;4.920;2022-11-11T02:42:27;18.35;;;16.33;;
17369;SDS011;8802;52.402;4.920;2022-11-11T02:44:53;17.65;;;15.85;;
17369;SDS011;8802;52.402;4.920;2022-11-11T02:47:23;19.10;;;16.38;;
17369;SDS011;8802;52.402;4.920;2022-11-11T02:49:51;18.50;;;14.98;;
17369;SDS011;8802;52.402;4.920;2022-11-11T02:52:17;17.48;;;15.55;;
17369;SDS011;8802;52.402;4.920;2022-11-11T02:54:44;18.85;;;15.75;;
17369;SDS011;8802;52.402;4.920;2022-11-11T02:57:13;19.38;;;16.20;;
17369;SDS011;8802;52.402;4.920;2022-11-11T02:59:41;18.98;;;15.35;;
17369;SDS011;8802;52.402;4.920;2022-11-11T03:02:08;19.27;;;17.17;;
17369;SDS011;8802;52.402;4.920;2022-11-11T03:04:35;20.33;;;16.45;;
17369;SDS011;8802;52.402;4.920;2022-11-11T03:07:02;19.65;;;16.10;;
17369;SDS011;8802;52.402;4.920;2022-11-11T03:09:29;18.80;;;15.57;;
17369;SDS011;8802;52.402;4.920;2022-11-11T03:11:57;19.48;;;16.65;;
17369;SDS011;8802;52.402;4.920;2022-11-11T03:14:24;18.33;;;15.73;;
17369;SDS011;8802;52.402;4.920;2022-11-11T03:16:52;19.88;;;17.38;;
17369;SDS011;8802;52.402;4.920;2022-11-11T03:19:37;18.60;;;15.77;;
17369;SDS011;8802;52.402;4.920;2022-11-11T03:22:04;17.20;;;15.35;;
17369;SDS011;8802;52.402;4.920;2022-11-11T03:24:30;19.08;;;16.63;;
17369;SDS011;8802;52.402;4.920;2022-11-11T03:27:10;21.60;;;16.05;;
17369;SDS011;8802;52.402;4.920;2022-11-11T03:29:38;18.67;;;16.77;;
17369;SDS011;8802;52.402;4.920;2022-11-11T03:32:06;19.33;;;16.00;;
17369;SDS011;8802;52.402;4.920;2022-11-11T03:34:34;18.08;;;15.75;;
17369;SDS011;8802;52.402;4.920;2022-11-11T03:37:01;21.60;;;16.88;;
17369;SDS011;8802;52.402;4.920;2022-11-11T03:39:47;18.70;;;16.17;;
17369;SDS011;8802;52.402;4.920;2022-11-11T03:42:14;19.80;;;16.88;;
17369;SDS011;8802;52.402;4.920;2022-11-11T03:44:40;21.88;;;17.42;;
17369;SDS011;8802;52.402;4.920;2022-11-11T03:47:09;21.88;;;17.40;;
17369;SDS011;8802;52.402;4.920;2022-11-11T03:49:36;18.35;;;16.40;;
17369;SDS011;8802;52.402;4.920;2022-11-11T03:52:03;19.95;;;17.27;;
17369;SDS011;8802;52.402;4.920;2022-11-11T03:54:30;18.92;;;16.75;;
17369;SDS011;8802;52.402;4.920;2022-11-11T03:56:57;19.02;;;17.02;;
17369;SDS011;8802;52.402;4.920;2022-11-11T03:59:38;18.73;;;16.65;;
17369;SDS011;8802;52.402;4.920;2022-11-11T04:02:05;21.52;;;16.30;;
17369;SDS011;8802;52.402;4.920;2022-11-11T04:04:54;19.63;;;15.45;;
17369;SDS011;8802;52.402;4.920;2022-11-11T04:07:38;22.77;;;17.92;;
17369;SDS011;8802;52.402;4.920;2022-11-11T04:10:22;20.17;;;16.95;;
17369;SDS011;8802;52.402;4.920;2022-11-11T04:12:49;21.55;;;17.98;;
17369;SDS011;8802;52.402;4.920;2022-11-11T04:15:34;19.65;;;17.65;;
17369;SDS011;8802;52.402;4.920;2022-11-11T04:18:20;19.58;;;17.50;;
17369;SDS011;8802;52.402;4.920;2022-11-11T04:21:07;21.95;;;18.42;;
17369;SDS011;8802;52.402;4.920;2022-11-11T04:23:52;19.27;;;17.35;;
17369;SDS011;8802;52.402;4.920;2022-11-11T04:26:19;21.40;;;17.45;;
17369;SDS011;8802;52.402;4.920;2022-11-11T04:28:45;21.67;;;19.40;;
17369;SDS011;8802;52.402;4.920;2022-11-11T04:31:29;20.70;;;18.60;;
17369;SDS011;8802;52.402;4.920;2022-11-11T04:33:57;21.73;;;19.55;;
17369;SDS011;8802;52.402;4.920;2022-11-11T04:36:23;22.65;;;20.38;;
17369;SDS011;8802;52.402;4.920;2022-11-11T04:38:50;22.83;;;19.38;;
17369;SDS011;8802;52.402;4.920;2022-11-11T04:41:34;22.50;;;20.13;;
17369;SDS011;8802;52.402;4.920;2022-11-11T04:44:01;22.55;;;20.17;;
17369;SDS011;8802;52.402;4.920;2022-11-11T04:46:46;23.27;;;20.77;;
17369;SDS011;8802;52.402;4.920;2022-11-11T04:49:14;22.88;;;19.38;;
17369;SDS011;8802;52.402;4.920;2022-11-11T04:51:41;23.13;;;19.08;;
17369;SDS011;8802;52.402;4.920;2022-11-11T04:54:25;21.70;;;19.48;;
17369;SDS011;8802;52.402;4.920;2022-11-11T04:56:52;22.77;;;20.40;;
17369;SDS011;8802;52.402;4.920;2022-11-11T04:59:18;21.02;;;18.52;;
17369;SDS011;8802;52.402;4.920;2022-11-11T05:01:45;23.60;;;19.65;;
17369;SDS011;8802;52.402;4.920;2022-11-11T05:04:31;20.90;;;17.17;;
17369;SDS011;8802;52.402;4.920;2022-11-11T05:06:58;19.73;;;17.60;;
17369;SDS011;8802;52.402;4.920;2022-11-11T05:09:42;23.13;;;20.55;;
17369;SDS011;8802;52.402;4.920;2022-11-11T05:12:09;20.30;;;18.17;;
17369;SDS011;8802;52.402;4.920;2022-11-11T05:14:36;20.05;;;17.95;;
17369;SDS011;8802;52.402;4.920;2022-11-11T05:17:20;22.63;;;20.33;;
17369;SDS011;8802;52.402;4.920;2022-11-11T05:20:07;21.67;;;18.73;;
17369;SDS011;8802;52.402;4.920;2022-11-11T05:22:52;21.80;;;18.70;;
17369;SDS011;8802;52.402;4.920;2022-11-11T05:25:19;21.10;;;18.45;;
17369;SDS011;8802;52.402;4.920;2022-11-11T05:27:53;20.60;;;18.52;;
17369;SDS011;8802;52.402;4.920;2022-11-11T05:30:21;21.70;;;19.50;;
17369;SDS011;8802;52.402;4.920;2022-11-11T05:32:49;22.65;;;19.92;;
17369;SDS011;8802;52.402;4.920;2022-11-11T05:35:18;20.38;;;17.50;;
17369;SDS011;8802;52.402;4.920;2022-11-11T05:37:45;23.13;;;20.77;;
17369;SDS011;8802;52.402;4.920;2022-11-11T05:40:33;20.38;;;18.15;;
17369;SDS011;8802;52.402;4.920;2022-11-11T05:43:00;21.92;;;19.70;;
17369;SDS011;8802;52.402;4.920;2022-11-11T05:45:27;24.10;;;21.08;;
17369;SDS011;8802;52.402;4.920;2022-11-11T05:47:54;22.33;;;19.98;;
17369;SDS011;8802;52.402;4.920;2022-11-11T05:50:27;20.33;;;18.30;;
17369;SDS011;8802;52.402;4.920;2022-11-11T05:52:54;20.40;;;18.23;;
17369;SDS011;8802;52.402;4.920;2022-11-11T05:55:21;20.08;;;17.95;;
17369;SDS011;8802;52.402;4.920;2022-11-11T05:57:48;21.42;;;18.73;;
17369;SDS011;8802;52.402;4.920;2022-11-11T06:00:16;22.70;;;19.63;;
17369;SDS011;8802;52.402;4.920;2022-11-11T06:02:43;22.98;;;20.58;;
17369;SDS011;8802;52.402;4.920;2022-11-11T06:05:10;21.83;;;19.50;;
17369;SDS011;8802;52.402;4.920;2022-11-11T06:07:38;23.80;;;19.42;;
17369;SDS011;8802;52.402;4.920;2022-11-11T06:10:06;22.50;;;19.48;;
17369;SDS011;8802;52.402;4.920;2022-11-11T06:12:52;24.65;;;19.25;;
17369;SDS011;8802;52.402;4.920;2022-11-11T06:15:29;19.55;;;17.63;;
17369;SDS011;8802;52.402;4.920;2022-11-11T06:17:57;22.45;;;18.70;;
17369;SDS011;8802;52.402;4.920;2022-11-11T06:20:24;21.88;;;19.60;;
17369;SDS011;8802;52.402;4.920;2022-11-11T06:22:53;19.33;;;17.35;;
17369;SDS011;8802;52.402;4.920;2022-11-11T06:25:24;20.48;;;18.20;;
17369;SDS011;8802;52.402;4.920;2022-11-11T06:28:09;24.20;;;18.83;;
17369;SDS011;8802;52.402;4.920;2022-11-11T06:30:36;21.02;;;18.63;;
17369;SDS011;8802;52.402;4.920;2022-11-11T06:33:03;20.45;;;18.42;;
17369;SDS011;8802;52.402;4.920;2022-11-11T06:35:31;22.27;;;19.55;;
17369;SDS011;8802;52.402;4.920;2022-11-11T06:38:01;21.42;;;19.23;;
17369;SDS011;8802;52.402;4.920;2022-11-11T06:40:28;22.00;;;19.63;;
17369;SDS011;8802;52.402;4.920;2022-11-11T06:42:56;20.45;;;18.33;;
17369;SDS011;8802;52.402;4.920;2022-11-11T06:45:23;21.80;;;19.05;;
17369;SDS011;8802;52.402;4.920;2022-11-11T06:47:51;21.95;;;19.15;;
17369;SDS011;8802;52.402;4.920;2022-11-11T06:50:18;23.58;;;19.42;;
17369;SDS011;8802;52.402;4.920;2022-11-11T06:52:45;19.45;;;17.38;;
17369;SDS011;8802;52.402;4.920;2022-11-11T06:55:14;21.35;;;19.05;;
17369;SDS011;8802;52.402;4.920;2022-11-11T06:57:41;20.80;;;18.60;;
17369;SDS011;8802;52.402;4.920;2022-11-11T07:00:08;20.90;;;18.10;;
17369;SDS011;8802;52.402;4.920;2022-11-11T07:02:36;20.30;;;18.23;;
17369;SDS011;8802;52.402;4.920;2022-11-11T07:05:03;21.40;;;19.20;;
17369;SDS011;8802;52.402;4.920;2022-11-11T07:07:30;21.52;;;19.27;;
17369;SDS011;8802;52.402;4.920;2022-11-11T07:09:57;21.48;;;19.33;;
17369;SDS011;8802;52.402;4.920;2022-11-11T07:12:26;22.88;;;19.90;;
17369;SDS011;8802;52.402;4.920;2022-11-11T07:14:54;20.50;;;18.40;;
17369;SDS011;8802;52.402;4.920;2022-11-11T07:17:21;22.13;;;19.55;;
17369;SDS011;8802;52.402;4.920;2022-11-11T07:19:47;20.90;;;18.83;;
17369;SDS011;8802;52.402;4.920;2022-11-11T07:22:14;20.88;;;18.83;;
17369;SDS011;8802;52.402;4.920;2022-11-11T07:24:41;21.90;;;19.67;;
17369;SDS011;8802;52.402;4.920;2022-11-11T07:27:08;21.52;;;19.50;;
17369;SDS011;8802;52.402;4.920;2022-11-11T07:29:37;19.80;;;17.85;;
17369;SDS011;8802;52.402;4.920;2022-11-11T07:32:05;21.92;;;19.60;;
17369;SDS011;8802;52.402;4.920;2022-11-11T07:34:35;22.98;;;19.20;;
17369;SDS011;8802;52.402;4.920;2022-11-11T07:37:02;21.60;;;19.40;;
17369;SDS011;8802;52.402;4.920;2022-11-11T07:39:29;23.00;;;19.42;;
17369;SDS011;8802;52.402;4.920;2022-11-11T07:41:56;21.05;;;19.05;;
17369;SDS011;8802;52.402;4.920;2022-11-11T07:44:23;19.50;;;17.45;;
17369;SDS011;8802;52.402;4.920;2022-11-11T07:46:51;21.00;;;18.48;;
17369;SDS011;8802;52.402;4.920;2022-11-11T07:49:18;20.98;;;18.98;;
17369;SDS011;8802;52.402;4.920;2022-11-11T07:51:45;20.23;;;18.25;;
17369;SDS011;8802;52.402;4.920;2022-11-11T07:54:12;21.17;;;18.38;;
17369;SDS011;8802;52.402;4.920;2022-11-11T07:56:39;21.25;;;18.35;;
17369;SDS011;8802;52.402;4.920;2022-11-11T07:59:06;20.65;;;17.83;;
17369;SDS011;8802;52.402;4.920;2022-11-11T08:01:33;21.65;;;19.35;;
17369;SDS011;8802;52.402;4.920;2022-11-11T08:04:01;21.65;;;19.42;;
17369;SDS011;8802;52.402;4.920;2022-11-11T08:06:28;21.02;;;18.13;;
17369;SDS011;8802;52.402;4.920;2022-11-11T08:08:55;19.85;;;17.85;;
17369;SDS011;8802;52.402;4.920;2022-11-11T08:11:22;19.98;;;17.08;;
17369;SDS011;8802;52.402;4.920;2022-11-11T08:14:03;20.10;;;18.00;;
17369;SDS011;8802;52.402;4.920;2022-11-11T08:16:30;18.10;;;16.13;;
17369;SDS011;8802;52.402;4.920;2022-11-11T08:18:57;19.23;;;17.33;;
17369;SDS011;8802;52.402;4.920;2022-11-11T08:21:25;17.40;;;15.60;;
17369;SDS011;8802;52.402;4.920;2022-11-11T08:23:52;18.13;;;16.42;;
17369;SDS011;8802;52.402;4.920;2022-11-11T08:26:20;18.02;;;16.17;;
17369;SDS011;8802;52.402;4.920;2022-11-11T08:28:48;18.38;;;16.63;;
17369;SDS011;8802;52.402;4.920;2022-11-11T08:31:16;18.90;;;16.95;;
17369;SDS011;8802;52.402;4.920;2022-11-11T08:33:44;19.83;;;17.80;;
17369;SDS011;8802;52.402;4.920;2022-11-11T08:36:11;20.73;;;18.63;;
17369;SDS011;8802;52.402;4.920;2022-11-11T08:38:39;21.25;;;18.38;;
17369;SDS011;8802;52.402;4.920;2022-11-11T08:41:06;20.75;;;18.50;;
17369;SDS011;8802;52.402;4.920;2022-11-11T08:43:33;21.15;;;19.05;;
17369;SDS011;8802;52.402;4.920;2022-11-11T08:46:01;19.15;;;17.17;;
17369;SDS011;8802;52.402;4.920;2022-11-11T08:48:29;18.17;;;16.27;;
17369;SDS011;8802;52.402;4.920;2022-11-11T08:50:57;19.65;;;17.75;;
17369;SDS011;8802;52.402;4.920;2022-11-11T08:53:24;18.00;;;16.23;;
17369;SDS011;8802;52.402;4.920;2022-11-11T08:55:53;18.50;;;16.70;;
17369;SDS011;8802;52.402;4.920;2022-11-11T08:58:20;19.77;;;17.75;;
17369;SDS011;8802;52.402;4.920;2022-11-11T09:00:47;20.35;;;18.33;;
17369;SDS011;8802;52.402;4.920;2022-11-11T09:03:14;20.42;;;18.45;;
17369;SDS011;8802;52.402;4.920;2022-11-11T09:05:41;19.55;;;17.48;;
17369;SDS011;8802;52.402;4.920;2022-11-11T09:08:11;19.05;;;17.13;;
17369;SDS011;8802;52.402;4.920;2022-11-11T09:10:39;19.00;;;17.13;;
17369;SDS011;8802;52.402;4.920;2022-11-11T09:13:07;19.92;;;17.85;;
17369;SDS011;8802;52.402;4.920;2022-11-11T09:15:34;20.05;;;18.08;;
17369;SDS011;8802;52.402;4.920;2022-11-11T09:18:01;17.98;;;16.23;;
17369;SDS011;8802;52.402;4.920;2022-11-11T09:20:28;17.88;;;16.17;;
17369;SDS011;8802;52.402;4.920;2022-11-11T09:22:55;17.42;;;15.82;;
17369;SDS011;8802;52.402;4.920;2022-11-11T09:25:22;18.40;;;16.52;;
17369;SDS011;8802;52.402;4.920;2022-11-11T09:27:52;18.50;;;16.67;;
17369;SDS011;8802;52.402;4.920;2022-11-11T09:30:22;17.20;;;15.60;;
17369;SDS011;8802;52.402;4.920;2022-11-11T09:32:49;18.65;;;16.70;;
17369;SDS011;8802;52.402;4.920;2022-11-11T09:35:16;18.13;;;16.42;;
17369;SDS011;8802;52.402;4.920;2022-11-11T09:37:51;18.23;;;16.42;;
17369;SDS011;8802;52.402;4.920;2022-11-11T09:40:20;17.92;;;16.17;;
17369;SDS011;8802;52.402;4.920;2022-11-11T09:42:53;17.70;;;16.05;;
17369;SDS011;8802;52.402;4.920;2022-11-11T09:45:32;18.98;;;17.00;;
17369;SDS011;8802;52.402;4.920;2022-11-11T09:48:15;17.92;;;16.30;;
17369;SDS011;8802;52.402;4.920;2022-11-11T09:50:56;17.83;;;16.13;;
17369;SDS011;8802;52.402;4.920;2022-11-11T09:53:26;18.73;;;16.85;;
17369;SDS011;8802;52.402;4.920;2022-11-11T09:55:57;19.67;;;17.67;;
17369;SDS011;8802;52.402;4.920;2022-11-11T09:58:30;20.25;;;18.17;;
17369;SDS011;8802;52.402;4.920;2022-11-11T10:01:04;21.30;;;18.17;;
17369;SDS011;8802;52.402;4.920;2022-11-11T10:03:37;17.92;;;16.05;;
17369;SDS011;8802;52.402;4.920;2022-11-11T10:06:08;19.02;;;17.13;;
17369;SDS011;8802;52.402;4.920;2022-11-11T10:08:43;19.25;;;17.35;;
17369;SDS011;8802;52.402;4.920;2022-11-11T10:11:17;18.55;;;16.65;;
17369;SDS011;8802;52.402;4.920;2022-11-11T10:13:51;20.10;;;18.02;;
17369;SDS011;8802;52.402;4.920;2022-11-11T10:16:23;19.08;;;17.27;;
17369;SDS011;8802;52.402;4.920;2022-11-11T10:19:02;19.33;;;17.58;;
17369;SDS011;8802;52.402;4.920;2022-11-11T10:21:39;20.63;;;18.48;;
17369;SDS011;8802;52.402;4.920;2022-11-11T10:24:13;19.40;;;17.55;;
17369;SDS011;8802;52.402;4.920;2022-11-11T10:26:44;20.13;;;18.17;;
17369;SDS011;8802;52.402;4.920;2022-11-11T10:29:12;19.13;;;17.20;;
17369;SDS011;8802;52.402;4.920;2022-11-11T10:31:43;18.83;;;16.92;;
17369;SDS011;8802;52.402;4.920;2022-11-11T10:34:14;19.75;;;17.58;;
17369;SDS011;8802;52.402;4.920;2022-11-11T10:36:45;19.75;;;17.92;;
17369;SDS011;8802;52.402;4.920;2022-11-11T10:39:15;19.10;;;17.13;;
17369;SDS011;8802;52.402;4.920;2022-11-11T10:41:49;19.77;;;17.55;;
17369;SDS011;8802;52.402;4.920;2022-11-11T10:44:17;17.40;;;15.82;;
17369;SDS011;8802;52.402;4.920;2022-11-11T10:46:49;19.33;;;17.40;;
17369;SDS011;8802;52.402;4.920;2022-11-11T10:49:23;20.10;;;18.02;;
17369;SDS011;8802;52.402;4.920;2022-11-11T10:51:54;17.50;;;15.77;;
17369;SDS011;8802;52.402;4.920;2022-11-11T10:54:31;17.15;;;15.30;;
17369;SDS011;8802;52.402;4.920;2022-11-11T10:57:02;17.98;;;16.27;;
17369;SDS011;8802;52.402;4.920;2022-11-11T10:59:35;18.67;;;16.85;;
17369;SDS011;8802;52.402;4.920;2022-11-11T11:02:11;19.25;;;17.27;;
17369;SDS011;8802;52.402;4.920;2022-11-11T11:04:45;18.25;;;16.45;;
17369;SDS011;8802;52.402;4.920;2022-11-11T11:07:16;18.77;;;16.88;;
17369;SDS011;8802;52.402;4.920;2022-11-11T11:09:49;17.35;;;15.65;;
17369;SDS011;8802;52.402;4.920;2022-11-11T11:12:23;18.30;;;16.48;;
17369;SDS011;8802;52.402;4.920;2022-11-11T11:14:58;18.08;;;16.17;;
17369;SDS011;8802;52.402;4.920;2022-11-11T11:17:33;18.20;;;16.38;;
17369;SDS011;8802;52.402;4.920;2022-11-11T11:20:07;18.48;;;16.52;;
17369;SDS011;8802;52.402;4.920;2022-11-11T11:22:44;17.23;;;15.63;;
17369;SDS011;8802;52.402;4.920;2022-11-11T11:25:13;16.65;;;15.05;;
17369;SDS011;8802;52.402;4.920;2022-11-11T11:27:40;16.20;;;14.63;;
17369;SDS011;8802;52.402;4.920;2022-11-11T11:30:11;18.45;;;16.58;;
17369;SDS011;8802;52.402;4.920;2022-11-11T11:32:41;16.05;;;14.55;;
17369;SDS011;8802;52.402;4.920;2022-11-11T11:35:29;17.25;;;15.55;;
17369;SDS011;8802;52.402;4.920;2022-11-11T11:38:01;16.27;;;14.82;;
17369;SDS011;8802;52.402;4.920;2022-11-11T11:40:43;16.50;;;14.95;;
17369;SDS011;8802;52.402;4.920;2022-11-11T11:43:23;15.35;;;13.82;;
17369;SDS011;8802;52.402;4.920;2022-11-11T11:45:53;15.98;;;14.38;;
17369;SDS011;8802;52.402;4.920;2022-11-11T11:48:26;16.13;;;14.52;;
17369;SDS011;8802;52.402;4.920;2022-11-11T11:51:08;16.60;;;14.90;;
17369;SDS011;8802;52.402;4.920;2022-11-11T11:53:48;16.10;;;14.65;;
17369;SDS011;8802;52.402;4.920;2022-11-11T11:56:24;17.75;;;16.00;;
17369;SDS011;8802;52.402;4.920;2022-11-11T11:59:02;15.23;;;13.70;;
17369;SDS011;8802;52.402;4.920;2022-11-11T12:01:34;15.95;;;14.52;;
17369;SDS011;8802;52.402;4.920;2022-11-11T12:04:17;14.57;;;13.30;;
17369;SDS011;8802;52.402;4.920;2022-11-11T12:06:54;15.25;;;13.65;;
17369;SDS011;8802;52.402;4.920;2022-11-11T12:09:33;15.25;;;13.82;;
17369;SDS011;8802;52.402;4.920;2022-11-11T12:12:06;14.95;;;12.93;;
17369;SDS011;8802;52.402;4.920;2022-11-11T12:14:49;13.63;;;11.77;;
17369;SDS011;8802;52.402;4.920;2022-11-11T12:17:29;13.00;;;11.85;;
17369;SDS011;8802;52.402;4.920;2022-11-11T12:20:09;13.55;;;12.25;;
17369;SDS011;8802;52.402;4.920;2022-11-11T12:22:48;13.40;;;12.07;;
17369;SDS011;8802;52.402;4.920;2022-11-11T12:25:29;13.05;;;11.85;;
17369;SDS011;8802;52.402;4.920;2022-11-11T12:28:09;13.77;;;12.35;;
17369;SDS011;8802;52.402;4.920;2022-11-11T12:30:47;12.57;;;11.48;;
17369;SDS011;8802;52.402;4.920;2022-11-11T12:36:21;13.75;;;12.30;;
17369;SDS011;8802;52.402;4.920;2022-11-11T12:38:59;13.77;;;12.43;;
17369;SDS011;8802;52.402;4.920;2022-11-11T12:41:44;12.70;;;11.40;;
17369;SDS011;8802;52.402;4.920;2022-11-11T12:44:17;12.65;;;11.45;;
17369;SDS011;8802;52.402;4.920;2022-11-11T12:46:52;13.25;;;12.05;;
17369;SDS011;8802;52.402;4.920;2022-11-11T12:49:42;12.55;;;11.43;;
17369;SDS011;8802;52.402;4.920;2022-11-11T12:52:26;13.07;;;11.85;;
17369;SDS011;8802;52.402;4.920;2022-11-11T12:55:13;12.25;;;11.05;;
17369;SDS011;8802;52.402;4.920;2022-11-11T12:57:50;14.35;;;12.35;;
17369;SDS011;8802;52.402;4.920;2022-11-11T13:00:35;13.38;;;12.05;;
17369;SDS011;8802;52.402;4.920;2022-11-11T13:03:17;13.15;;;11.77;;
17369;SDS011;8802;52.402;4.920;2022-11-11T13:05:54;13.10;;;11.80;;
17369;SDS011;8802;52.402;4.920;2022-11-11T13:08:42;14.48;;;11.80;;
17369;SDS011;8802;52.402;4.920;2022-11-11T13:11:37;12.93;;;11.57;;
17369;SDS011;8802;52.402;4.920;2022-11-11T13:17:08;13.57;;;12.27;;
17369;SDS011;8802;52.402;4.920;2022-11-11T13:19:38;14.38;;;12.88;;
17369;SDS011;8802;52.402;4.920;2022-11-11T13:22:12;14.10;;;12.70;;
17369;SDS011;8802;52.402;4.920;2022-11-11T13:24:47;14.85;;;13.20;;
17369;SDS011;8802;52.402;4.920;2022-11-11T13:27:15;15.13;;;13.52;;
17369;SDS011;8802;52.402;4.920;2022-11-11T13:29:59;16.75;;;14.98;;
17369;SDS011;8802;52.402;4.920;2022-11-11T13:32:37;15.02;;;13.57;;
17369;SDS011;8802;52.402;4.920;2022-11-11T13:35:11;13.13;;;11.93;;
17369;SDS011;8802;52.402;4.920;2022-11-11T13:37:46;13.80;;;12.23;;
17369;SDS011;8802;52.402;4.920;2022-11-11T13:40:23;13.98;;;12.57;;
17369;SDS011;8802;52.402;4.920;2022-11-11T13:42:59;12.48;;;11.23;;
17369;SDS011;8802;52.402;4.920;2022-11-11T13:45:31;12.65;;;11.45;;
17369;SDS011;8802;52.402;4.920;2022-11-11T13:48:01;16.15;;;14.48;;
17369;SDS011;8802;52.402;4.920;2022-11-11T13:50:30;12.98;;;11.60;;
17369;SDS011;8802;52.402;4.920;2022-11-11T13:52:59;12.90;;;11.23;;
17369;SDS011;8802;52.402;4.920;2022-11-11T13:55:30;11.70;;;10.60;;
17369;SDS011;8802;52.402;4.920;2022-11-11T13:58:01;11.40;;;10.32;;
17369;SDS011;8802;52.402;4.920;2022-11-11T14:00:31;12.45;;;10.00;;
17369;SDS011;8802;52.402;4.920;2022-11-11T14:08:55;11.23;;;9.70;;
17369;SDS011;8802;52.402;4.920;2022-11-11T14:11:33;13.75;;;10.82;;
17369;SDS011;8802;52.402;4.920;2022-11-11T14:17:13;10.38;;;9.48;;
17369;SDS011;8802;52.402;4.920;2022-11-11T14:19:42;12.10;;;11.00;;
17369;SDS011;8802;52.402;4.920;2022-11-11T14:22:27;10.80;;;9.73;;
17369;SDS011;8802;52.402;4.920;2022-11-11T14:25:08;11.13;;;10.10;;
17369;SDS011;8802;52.402;4.920;2022-11-11T14:27:43;13.27;;;10.95;;
17369;SDS011;8802;52.402;4.920;2022-11-11T14:30:11;12.38;;;10.70;;
17369;SDS011;8802;52.402;4.920;2022-11-11T14:32:59;11.68;;;10.48;;
17369;SDS011;8802;52.402;4.920;2022-11-11T14:35:32;11.38;;;10.27;;
17369;SDS011;8802;52.402;4.920;2022-11-11T14:38:06;10.52;;;9.52;;
17369;SDS011;8802;52.402;4.920;2022-11-11T14:40:50;12.15;;;10.98;;
17369;SDS011;8802;52.402;4.920;2022-11-11T14:43:34;11.45;;;10.25;;
17369;SDS011;8802;52.402;4.920;2022-11-11T14:46:04;11.05;;;10.00;;
17369;SDS011;8802;52.402;4.920;2022-11-11T14:48:52;14.93;;;11.23;;
17369;SDS011;8802;52.402;4.920;2022-11-11T14:54:22;10.20;;;9.18;;
17369;SDS011;8802;52.402;4.920;2022-11-11T14:56:59;12.07;;;10.65;;
17369;SDS011;8802;52.402;4.920;2022-11-11T14:59:32;11.65;;;10.45;;
17369;SDS011;8802;52.402;4.920;2022-11-11T15:02:00;12.48;;;11.15;;
17369;SDS011;8802;52.402;4.920;2022-11-11T15:04:35;11.55;;;10.13;;
17369;SDS011;8802;52.402;4.920;2022-11-11T15:07:03;10.40;;;9.35;;
17369;SDS011;8802;52.402;4.920;2022-11-11T15:09:58;10.98;;;9.85;;
17369;SDS011;8802;52.402;4.920;2022-11-11T15:15:38;11.43;;;10.27;;
17369;SDS011;8802;52.402;4.920;2022-11-11T15:18:13;13.10;;;10.18;;
17369;SDS011;8802;52.402;4.920;2022-11-11T15:20:54;13.32;;;9.82;;
17369;SDS011;8802;52.402;4.920;2022-11-11T15:23:29;11.38;;;10.18;;
17369;SDS011;8802;52.402;4.920;2022-11-11T15:26:03;13.75;;;10.50;;